Time;durP1;ratioP1;P1;durP2;ratioP2;P2;SDS_P1;SDS_P2;PMS_P1;PMS_P2;Temp;Humidity;BMP_temperature;BMP_pressure;BME280_temperature;BME280_humidity;BME280_pressure;Samples;Min_cycle;Max_cycle;Signal;HPM_P1;HPM_P2
2022/01/17 00:00:00;;;;;;;20.15;10.23;;;;;;;6.16;100.00;99168.91;5035411;28;20112;-57
2022/01/17 00:02:28;;;;;;;41.15;19.25;;;;;;;4.91;100.00;99166.50;5030309;28;20048;-57
2022/01/17 00:04:54;;;;;;;35.75;17.10;;;;;;;4.52;100.00;99167.31;5032110;28;20579;-58
2022/01/17 00:07:20;;;;;;;33.60;16.85;;;;;;;5.43;100.00;99175.13;5034002;28;20116;-57
2022/01/17 00:09:45;;;;;;;29.17;13.50;;;;;;;6.98;100.00;99174.44;5034976;28;20037;-57
2022/01/17 00:12:11;;;;;;;28.48;14.70;;;;;;;5.82;100.00;99166.38;5033826;28;20145;-58
2022/01/17 00:14:41;;;;;;;23.15;11.13;;;;;;;6.90;100.00;99163.25;5034772;28;20020;-58
2022/01/17 00:19:42;;;;;;;36.03;18.98;;;;;;;6.11;100.00;99165.47;5035422;28;20090;-58
2022/01/17 00:22:09;;;;;;;35.08;17.08;;;;;;;5.72;100.00;99165.56;5034105;28;20094;-55
2022/01/17 00:24:34;;;;;;;25.15;12.32;;;;;;;7.90;100.00;99170.97;5034996;28;20112;-57
2022/01/17 00:27:00;;;;;;;25.67;13.05;;;;;;;6.62;100.00;99168.66;5033429;28;20176;-57
2022/01/17 00:29:26;;;;;;;40.95;20.55;;;;;;;5.32;100.00;99172.53;5035162;28;20033;-57
2022/01/17 00:31:52;;;;;;;37.20;18.95;;;;;;;5.08;100.00;99168.25;5032151;28;20485;-57
2022/01/17 00:34:17;;;;;;;18.92;9.05;;;;;;;7.56;100.00;99169.63;5032058;28;20099;-57
2022/01/17 00:36:42;;;;;;;35.25;17.98;;;;;;;5.19;100.00;99163.91;5032008;28;20090;-56
2022/01/17 00:39:08;;;;;;;33.53;16.65;;;;;;;5.80;100.00;99166.38;5034423;28;20108;-58
2022/01/17 00:41:33;;;;;;;31.67;14.85;;;;;;;7.98;100.00;99177.81;5034754;28;20127;-56
2022/01/17 00:43:59;;;;;;;29.08;15.43;;;;;;;6.55;100.00;99164.38;5035931;28;20024;-57
2022/01/17 00:46:24;;;;;;;31.00;15.48;;;;;;;5.62;100.00;99166.44;5035271;28;20116;-56
2022/01/17 00:48:51;;;;;;;32.00;16.73;;;;;;;6.68;100.00;99175.53;5036019;28;20021;-55
2022/01/17 00:51:17;;;;;;;20.73;10.95;;;;;;;7.53;100.00;99176.56;5034715;28;20086;-56
2022/01/17 00:53:42;;;;;;;31.73;16.25;;;;;;;6.13;100.00;99164.56;5035567;28;20067;-56
2022/01/17 00:56:07;;;;;;;29.83;15.57;;;;;;;5.78;100.00;99167.25;5035104;28;20047;-57
2022/01/17 00:58:33;;;;;;;21.52;11.07;;;;;;;7.38;100.00;99163.72;5035758;28;20028;-56
2022/01/17 01:00:59;;;;;;;26.42;14.63;;;;;;;6.41;100.00;99153.22;5034920;28;20098;-56
2022/01/17 01:03:24;;;;;;;30.38;15.27;;;;;;;8.12;100.00;99155.09;5035809;28;20028;-57
2022/01/17 01:05:50;;;;;;;23.63;12.68;;;;;;;7.16;100.00;99149.22;5037260;28;20041;-56
2022/01/17 01:08:15;;;;;;;24.27;12.55;;;;;;;7.36;100.00;99141.25;5039716;28;20132;-56
2022/01/17 01:10:41;;;;;;;23.02;12.82;;;;;;;8.04;100.00;99130.97;5037323;28;20493;-57
2022/01/17 01:13:07;;;;;;;28.10;14.27;;;;;;;6.88;100.00;99118.31;5040172;28;20386;-58
2022/01/17 01:19:05;;;;;;;24.67;13.52;;;;;;;7.32;100.00;99114.47;5040344;28;20025;-57
2022/01/17 01:28:53;;;;;;;29.60;15.23;;;;;;;6.62;100.00;99119.38;5039922;28;20473;-57
2022/01/17 01:31:28;;;;;;;34.28;17.30;;;;;;;5.54;100.00;99129.38;5039151;28;20551;-57
2022/01/17 01:33:55;;;;;;;22.48;10.63;;;;;;;7.58;100.00;99131.50;5039152;28;20809;-58
2022/01/17 01:36:27;;;;;;;30.73;17.02;;;;;;;6.18;100.00;99123.97;5038152;28;20041;-57
2022/01/17 01:38:53;;;;;;;27.48;14.40;;;;;;;6.00;100.00;99120.63;5038891;28;20115;-58
2022/01/17 01:41:20;;;;;;;36.28;18.77;;;;;;;5.28;100.00;99124.25;5038066;28;20171;-57
2022/01/17 01:43:46;;;;;;;31.05;15.25;;;;;;;5.07;100.00;99120.81;5038686;28;20133;-58
2022/01/17 01:46:14;;;;;;;33.10;17.67;;;;;;;6.06;100.00;99117.97;5038354;28;20504;-58
2022/01/17 01:48:40;;;;;;;22.85;12.07;;;;;;;6.81;100.00;99117.50;5039173;28;20032;-57
2022/01/17 01:51:05;;;;;;;19.10;7.40;;;;;;;7.87;100.00;99123.38;5038026;28;20106;-56
2022/01/17 01:53:31;;;;;;;19.27;10.05;;;;;;;6.93;100.00;99126.94;5039225;28;20024;-57
2022/01/17 01:55:58;;;;;;;19.00;8.98;;;;;;;8.77;100.00;99133.47;5038540;28;20037;-59
2022/01/17 01:58:26;;;;;;;28.55;15.07;;;;;;;7.24;100.00;99126.63;5038974;28;20044;-57
2022/01/17 02:00:51;;;;;;;33.83;17.23;;;;;;;5.30;100.00;99127.69;5038550;28;20481;-57
2022/01/17 02:03:18;;;;;;;22.45;11.98;;;;;;;6.78;100.00;99132.22;5034806;28;20048;-56
2022/01/17 02:05:44;;;;;;;19.42;9.95;;;;;;;6.62;100.00;99132.34;5035645;28;20040;-59
2022/01/17 02:08:14;;;;;;;28.58;14.60;;;;;;;6.71;100.00;99126.25;5038955;28;20025;-58
2022/01/17 02:10:40;;;;;;;34.35;17.77;;;;;;;4.97;100.00;99113.94;5037487;28;20037;-58
2022/01/17 02:13:05;;;;;;;27.35;14.10;;;;;;;6.64;100.00;99132.34;5038406;28;20043;-56
2022/01/17 02:15:31;;;;;;;28.65;15.45;;;;;;;7.04;100.00;99139.78;5037928;28;20037;-56
2022/01/17 02:17:57;;;;;;;25.65;13.00;;;;;;;6.40;100.00;99138.56;5038237;28;20151;-57
2022/01/17 02:20:39;;;;;;;16.63;8.43;;;;;;;10.02;100.00;99150.31;5037762;28;20505;-57
2022/01/17 02:23:06;;;;;;;16.65;8.82;;;;;;;8.44;100.00;99138.28;5038396;28;20036;-56
2022/01/17 02:25:32;;;;;;;23.33;12.70;;;;;;;7.57;100.00;99127.19;5037732;28;20029;-57
2022/01/17 02:27:58;;;;;;;19.10;10.43;;;;;;;10.51;100.00;99141.47;5038295;28;20051;-55
2022/01/17 02:30:25;;;;;;;18.42;9.20;;;;;;;8.74;100.00;99133.50;5037647;28;20024;-56
2022/01/17 02:32:51;;;;;;;20.17;10.75;;;;;;;7.78;100.00;99134.75;5038840;28;20033;-55
2022/01/17 02:35:19;;;;;;;19.08;10.02;;;;;;;7.49;100.00;99130.72;5038215;28;20033;-56
2022/01/17 02:37:45;;;;;;;17.77;9.88;;;;;;;8.84;100.00;99133.34;5038169;28;20086;-56
2022/01/17 02:40:13;;;;;;;18.98;10.25;;;;;;;7.78;100.00;99118.31;5038317;28;20042;-56
2022/01/17 02:42:39;;;;;;;22.10;12.30;;;;;;;7.30;100.00;99105.84;5038205;28;20064;-56
2022/01/17 02:45:19;;;;;;;14.63;8.23;;;;;;;8.91;100.00;99125.41;5038381;28;20031;-57
2022/01/17 02:47:44;;;;;;;29.15;15.63;;;;;;;7.53;100.00;99103.88;5038251;28;20025;-57
2022/01/17 02:50:10;;;;;;;20.25;10.48;;;;;;;6.56;100.00;99107.31;5037563;28;20090;-56
2022/01/17 02:52:35;;;;;;;16.02;8.27;;;;;;;9.51;100.00;99121.78;5036272;28;20086;-58
2022/01/17 02:55:01;;;;;;;19.00;10.15;;;;;;;9.31;100.00;99109.97;5038040;28;20036;-57
2022/01/17 02:57:28;;;;;;;18.33;10.20;;;;;;;8.27;100.00;99100.34;5037507;28;20041;-56
2022/01/17 02:59:54;;;;;;;13.50;7.00;;;;;;;9.25;100.00;99105.72;5037864;28;20103;-58
2022/01/17 03:02:19;;;;;;;16.13;8.45;;;;;;;8.39;100.00;99111.44;5036525;28;20097;-57
2022/01/17 03:04:45;;;;;;;20.85;10.80;;;;;;;7.11;100.00;99106.03;5037780;28;20033;-56
2022/01/17 03:07:10;;;;;;;21.63;10.80;;;;;;;8.89;100.00;99109.81;5037506;28;20170;-58
2022/01/17 03:09:45;;;;;;;28.45;14.73;;;;;;;6.25;100.00;99088.53;5037928;28;20555;-57
2022/01/17 03:12:10;;;;;;;21.23;11.55;;;;;;;8.99;100.00;99085.38;5036671;28;20074;-57
2022/01/17 03:14:36;;;;;;;24.38;13.07;;;;;;;7.82;100.00;99089.66;5036204;28;20038;-62
2022/01/17 03:17:01;;;;;;;23.23;11.80;;;;;;;7.53;100.00;99093.47;5036514;28;20045;-56
2022/01/17 03:19:27;;;;;;;18.08;10.02;;;;;;;7.25;100.00;99094.63;5035642;28;20091;-57
2022/01/17 03:21:52;;;;;;;14.35;7.93;;;;;;;11.35;100.00;99107.22;5036490;28;20041;-56
2022/01/17 03:24:17;;;;;;;17.30;9.50;;;;;;;10.22;100.00;99096.00;5037227;28;20047;-58
2022/01/17 03:26:43;;;;;;;14.77;8.25;;;;;;;11.16;100.00;99091.16;5036778;28;20033;-57
2022/01/17 03:29:08;;;;;;;17.02;8.80;;;;;;;9.59;100.00;99093.81;5036451;28;20380;-54
2022/01/17 03:31:34;;;;;;;20.92;10.23;;;;;;;8.50;100.00;99088.75;5036679;28;20051;-56
2022/01/17 03:33:59;;;;;;;14.48;8.18;;;;;;;9.53;100.00;99096.56;5037268;28;20021;-56
2022/01/17 03:36:25;;;;;;;13.00;7.85;;;;;;;9.49;100.00;99102.72;5037093;28;20036;-57
2022/01/17 03:38:50;;;;;;;19.13;10.88;;;;;;;10.87;100.00;99089.28;5037030;28;20696;-57
2022/01/17 03:41:16;;;;;;;17.40;10.60;;;;;;;10.21;100.00;99086.44;5036781;28;20039;-58
2022/01/17 03:43:41;;;;;;;14.35;7.43;;;;;;;10.23;100.00;99087.25;5037310;28;20036;-57
2022/01/17 03:46:07;;;;;;;10.60;5.80;;;;;;;9.46;100.00;99085.38;5036652;28;20067;-58
2022/01/17 03:48:33;;;;;;;24.92;14.20;;;;;;;8.01;100.00;99073.84;5037175;28;20040;-57
2022/01/17 03:51:01;;;;;;;13.90;8.23;;;;;;;9.59;100.00;99088.63;5036280;28;20700;-56
2022/01/17 03:53:27;;;;;;;26.45;15.50;;;;;;;7.74;100.00;99091.50;5037223;28;20029;-58
2022/01/17 03:55:53;;;;;;;21.45;12.15;;;;;;;8.21;100.00;99108.19;5024033;28;20779;-56
2022/01/17 03:58:21;;;;;;;22.00;12.20;;;;;;;8.57;100.00;99108.59;5036961;28;20041;-57
2022/01/17 04:00:48;;;;;;;14.52;8.20;;;;;;;9.58;100.00;99123.38;5036131;28;20087;-58
2022/01/17 04:03:14;;;;;;;21.83;11.75;;;;;;;8.94;100.00;99118.41;5036312;28;20029;-57
2022/01/17 04:05:39;;;;;;;10.07;5.53;;;;;;;12.69;100.00;99115.59;5036306;28;20044;-58
2022/01/17 04:08:06;;;;;;;14.40;8.93;;;;;;;10.68;100.00;99098.47;5036796;28;20526;-57
2022/01/17 04:10:32;;;;;;;14.65;8.00;;;;;;;9.93;100.00;99103.59;5034413;28;20622;-57
2022/01/17 04:13:01;;;;;;;9.88;5.97;;;;;;;12.11;100.00;99102.53;5036238;28;20769;-56
2022/01/17 04:15:28;;;;;;;10.13;5.80;;;;;;;10.64;100.00;99086.38;5035878;28;20029;-58
2022/01/17 04:17:54;;;;;;;13.90;8.20;;;;;;;9.86;100.00;99102.00;5036394;28;20033;-56
2022/01/17 04:20:26;;;;;;;11.10;6.10;;;;;;;12.59;100.00;99111.53;5036101;28;20021;-57
2022/01/17 04:22:54;;;;;;;12.88;7.85;;;;;;;10.52;100.00;99093.59;5036561;28;20090;-56
2022/01/17 04:25:20;;;;;;;14.30;7.68;;;;;;;12.05;100.00;99098.31;5035522;28;20021;-58
2022/01/17 04:27:46;;;;;;;11.93;6.43;;;;;;;12.53;100.00;99095.16;5036001;28;20660;-57
2022/01/17 04:30:13;;;;;;;14.13;8.02;;;;;;;10.62;100.00;99091.63;5035862;28;20092;-56
2022/01/17 04:32:40;;;;;;;16.02;9.23;;;;;;;10.72;100.00;99074.03;5036608;28;20024;-57
2022/01/17 04:35:06;;;;;;;10.55;6.10;;;;;;;13.16;100.00;99079.13;5035989;28;20032;-56
2022/01/17 04:37:31;;;;;;;18.95;11.50;;;;;;;10.70;100.00;99060.16;5037129;28;20025;-58
2022/01/17 04:39:56;;;;;;;13.07;7.05;;;;;;;10.27;100.00;99075.00;5039239;28;20025;-56
2022/01/17 04:42:27;;;;;;;11.55;7.32;;;;;;;9.82;100.00;99078.59;5039843;28;20152;-58
2022/01/17 04:45:08;;;;;;;9.32;5.85;;;;;;;12.98;100.00;99075.38;5040488;28;20028;-56
2022/01/17 04:47:36;;;;;;;11.85;6.82;;;;;;;10.17;100.00;99073.53;5039904;28;20122;-58
2022/01/17 04:50:03;;;;;;;16.60;10.38;;;;;;;7.84;100.00;99074.91;5040172;28;20037;-58
2022/01/17 04:52:29;;;;;;;10.48;6.20;;;;;;;11.88;100.00;99079.66;5038955;28;20036;-56
2022/01/17 04:54:59;;;;;;;10.05;6.25;;;;;;;12.77;100.00;99105.72;5039772;28;20047;-57
2022/01/17 04:57:24;;;;;;;11.45;6.43;;;;;;;11.96;100.00;99111.66;5039218;28;20037;-58
2022/01/17 04:59:50;;;;;;;10.52;5.60;;;;;;;12.09;100.00;99120.91;5039329;28;20040;-56
2022/01/17 05:02:16;;;;;;;14.82;8.35;;;;;;;11.02;100.00;99118.53;5038948;28;20044;-58
2022/01/17 05:04:44;;;;;;;9.10;5.63;;;;;;;12.70;100.00;99146.09;5039786;28;20033;-58
2022/01/17 05:07:10;;;;;;;9.07;5.63;;;;;;;11.23;100.00;99138.88;5038867;28;20069;-58
2022/01/17 05:09:38;;;;;;;14.07;8.25;;;;;;;9.27;100.00;99130.00;5039554;28;20057;-56
2022/01/17 05:12:03;;;;;;;16.27;9.40;;;;;;;8.53;100.00;99139.84;5038678;28;20048;-57
2022/01/17 05:14:29;;;;;;;10.25;6.20;;;;;;;10.14;100.00;99139.59;5039622;28;20024;-57
2022/01/17 05:17:02;;;;;;;19.25;11.73;;;;;;;8.62;100.00;99140.59;5039300;28;20136;-57
2022/01/17 05:22:11;;;;;;;15.07;8.18;;;;;;;8.26;100.00;99135.00;5038418;28;20118;-57
2022/01/17 05:24:37;;;;;;;13.82;8.30;;;;;;;10.41;100.00;99138.19;5039345;28;20453;-57
2022/01/17 05:27:03;;;;;;;19.60;10.50;;;;;;;7.56;100.00;99118.53;5039075;28;20682;-58
2022/01/17 05:29:28;;;;;;;23.23;12.57;;;;;;;8.36;100.00;99121.88;5039269;28;20028;-57
2022/01/17 05:31:54;;;;;;;23.77;13.00;;;;;;;7.29;100.00;99125.72;5038436;28;20045;-57
2022/01/17 05:34:19;;;;;;;18.88;10.10;;;;;;;8.24;100.00;99139.34;5039067;28;21127;-57
2022/01/17 05:36:44;;;;;;;24.38;13.13;;;;;;;8.96;100.00;99147.88;5038437;28;20477;-58
2022/01/17 05:39:10;;;;;;;16.40;9.38;;;;;;;8.24;100.00;99147.16;5038853;28;20028;-56
2022/01/17 05:41:35;;;;;;;20.50;11.35;;;;;;;7.25;100.00;99136.16;5038224;28;20143;-58
2022/01/17 05:44:01;;;;;;;19.08;10.40;;;;;;;8.26;100.00;99132.41;5037639;28;20033;-57
2022/01/17 05:46:26;;;;;;;13.90;7.55;;;;;;;9.72;100.00;99121.34;5038414;28;20036;-58
2022/01/17 05:48:51;;;;;;;14.48;8.32;;;;;;;10.54;100.00;99123.13;5038885;28;20040;-57
2022/01/17 05:51:17;;;;;;;12.43;6.57;;;;;;;11.94;100.00;99142.25;5037592;28;20068;-58
2022/01/17 05:53:42;;;;;;;11.48;5.90;;;;;;;10.47;100.00;99157.22;5038605;28;20028;-58
2022/01/17 05:56:07;;;;;;;16.65;9.10;;;;;;;10.09;100.00;99138.88;5037886;28;20048;-58
2022/01/17 05:58:33;;;;;;;22.52;11.52;;;;;;;10.68;100.00;99129.78;5038322;28;20032;-56
2022/01/17 06:00:59;;;;;;;14.75;7.85;;;;;;;8.99;100.00;99121.81;5037210;28;20040;-58
2022/01/17 06:03:25;;;;;;;28.77;15.30;;;;;;;5.94;100.00;99117.13;5031164;28;20429;-57
2022/01/17 06:05:52;;;;;;;20.88;11.23;;;;;;;8.43;100.00;99144.34;5040972;28;20043;-57
2022/01/17 06:08:17;;;;;;;11.35;6.65;;;;;;;10.13;100.00;99127.47;5041883;28;20675;-58
2022/01/17 06:10:42;;;;;;;19.85;10.55;;;;;;;7.63;100.00;99122.78;5040748;28;20060;-57
2022/01/17 06:13:08;;;;;;;13.18;5.88;;;;;;;8.05;100.00;99123.16;5042006;28;20021;-59
2022/01/17 06:15:33;;;;;;;9.48;5.32;;;;;;;14.06;100.00;99122.25;5041397;28;20083;-57
2022/01/17 06:17:58;;;;;;;10.98;6.70;;;;;;;10.19;100.00;99106.47;5041871;28;20094;-58
2022/01/17 06:20:24;;;;;;;16.98;9.65;;;;;;;7.84;100.00;99098.28;5041028;28;20021;-58
2022/01/17 06:22:49;;;;;;;23.23;13.05;;;;;;;7.85;100.00;99126.00;5041883;28;20601;-57
2022/01/17 06:25:15;;;;;;;22.75;12.98;;;;;;;7.73;100.00;99120.94;5040748;28;20040;-57
2022/01/17 06:27:40;;;;;;;11.98;6.35;;;;;;;11.74;100.00;99155.81;5041007;28;20039;-56
2022/01/17 06:30:07;;;;;;;15.25;8.15;;;;;;;10.07;100.00;99145.00;5040957;28;20021;-58
2022/01/17 06:32:33;;;;;;;22.65;12.35;;;;;;;9.29;100.00;99122.16;5040473;28;20144;-57
2022/01/17 06:34:58;;;;;;;13.68;7.35;;;;;;;9.15;100.00;99139.75;5041124;28;20047;-57
2022/01/17 06:37:25;;;;;;;18.85;10.32;;;;;;;8.39;100.00;99147.84;5041021;28;20044;-58
2022/01/17 06:39:53;;;;;;;20.95;11.05;;;;;;;7.46;100.00;99151.53;5034651;28;20056;-58
2022/01/17 06:42:19;;;;;;;20.08;10.95;;;;;;;7.97;100.00;99150.09;5040442;28;20037;-58
2022/01/17 06:44:44;;;;;;;18.85;9.98;;;;;;;7.86;100.00;99164.06;5027758;28;20033;-56
2022/01/17 06:47:09;;;;;;;18.25;9.57;;;;;;;8.87;100.00;99167.09;5040897;28;20758;-58
2022/01/17 06:49:35;;;;;;;28.77;14.15;;;;;;;7.81;100.00;99155.50;5039071;28;20039;-59
2022/01/17 06:52:00;;;;;;;18.05;9.25;;;;;;;8.51;100.00;99163.31;5040303;28;20037;-60
2022/01/17 06:54:26;;;;;;;24.08;12.43;;;;;;;7.60;100.00;99163.50;5040874;28;20025;-57
2022/01/17 06:56:51;;;;;;;28.30;14.82;;;;;;;6.70;100.00;99169.44;5041007;28;20501;-59
2022/01/17 06:59:16;;;;;;;31.38;15.80;;;;;;;5.12;100.00;99165.63;5040878;28;20124;-58
2022/01/17 07:01:42;;;;;;;21.83;10.70;;;;;;;6.68;100.00;99167.75;5039917;28;20052;-57
2022/01/17 07:04:09;;;;;;;33.33;16.35;;;;;;;4.85;100.00;99155.28;5039911;28;20067;-57
2022/01/17 07:06:34;;;;;;;34.45;15.15;;;;;;;5.00;100.00;99171.69;5040280;28;20646;-59
2022/01/17 07:09:00;;;;;;;37.72;17.23;;;;;;;4.60;100.00;99186.28;5040937;28;20534;-56
2022/01/17 07:11:26;;;;;;;36.85;16.40;;;;;;;4.10;100.00;99194.72;5039634;28;20066;-57
2022/01/17 07:13:52;;;;;;;37.08;16.05;;;;;;;4.37;100.00;99200.00;5040928;28;20494;-57
2022/01/17 07:16:18;;;;;;;36.28;16.20;;;;;;;4.20;100.00;99209.41;5040152;28;20040;-58
2022/01/17 07:18:44;;;;;;;33.58;9.27;;;;;;;13.20;100.00;99264.13;5040796;28;20031;-57
2022/01/17 07:21:09;;;;;;;44.70;18.35;;;;;;;5.45;100.00;99267.41;5039910;28;20885;-57
2022/01/17 07:23:34;;;;;;;47.08;16.00;;;;;;;6.28;100.00;99266.44;5040459;28;20025;-58
2022/01/17 07:26:00;;;;;;;37.08;15.82;;;;;;;5.39;100.00;99257.06;5040013;28;20036;-59
2022/01/17 07:28:25;;;;;;;39.65;14.00;;;;;;;5.68;100.00;99269.09;5040777;28;20017;-58
2022/01/17 07:30:50;;;;;;;35.58;14.75;;;;;;;5.78;100.00;99255.28;5038537;28;20037;-56
2022/01/17 07:33:17;;;;;;;32.90;13.20;;;;;;;6.40;100.00;99221.47;5038337;28;20021;-58
2022/01/17 07:35:45;;;;;;;32.58;13.45;;;;;;;6.35;100.00;99199.00;5039745;28;20107;-57
2022/01/17 07:38:11;;;;;;;35.80;13.98;;;;;;;5.26;100.00;99198.44;5040840;28;20020;-58
2022/01/17 07:40:37;;;;;;;32.53;12.52;;;;;;;5.58;100.00;99209.59;5039363;28;20798;-58
2022/01/17 07:43:02;;;;;;;31.45;13.23;;;;;;;4.96;100.00;99210.47;5039356;28;20094;-59
2022/01/17 07:45:30;;;;;;;31.95;13.25;;;;;;;4.51;100.00;99202.63;5039305;28;20602;-56
2022/01/17 07:48:08;;;;;;;32.13;13.05;;;;;;;5.69;100.00;99199.22;5040069;28;20513;-57
2022/01/17 07:50:34;;;;;;;30.23;12.23;;;;;;;5.76;100.00;99200.06;5038736;28;20052;-60
2022/01/17 07:52:59;;;;;;;29.38;12.15;;;;;;;6.04;100.00;99205.19;5039702;28;20098;-58
2022/01/17 07:55:24;;;;;;;28.15;12.15;;;;;;;5.73;100.00;99195.75;5038053;28;20041;-57
2022/01/17 07:57:49;;;;;;;24.50;9.85;;;;;;;6.17;100.00;99202.53;5040231;28;20802;-58
2022/01/17 08:00:22;;;;;;;33.75;13.40;;;;;;;6.68;100.00;99193.66;5038804;28;20554;-58
2022/01/17 08:02:49;;;;;;;23.27;11.02;;;;;;;6.34;100.00;99192.13;5039552;28;20621;-59
2022/01/17 08:05:14;;;;;;;26.95;11.55;;;;;;;6.38;100.00;99190.38;5039252;28;20933;-57
2022/01/17 08:07:43;;;;;;;25.77;10.90;;;;;;;6.37;100.00;99183.47;5039403;28;20028;-58
2022/01/17 08:10:12;;;;;;;25.35;11.10;;;;;;;6.17;100.00;99187.00;5038869;28;20021;-59
2022/01/17 08:12:39;;;;;;;22.67;10.30;;;;;;;6.80;100.00;99196.19;5039567;28;20083;-59
2022/01/17 08:15:05;;;;;;;25.05;12.13;;;;;;;5.61;100.00;99206.13;5038437;28;20693;-57
2022/01/17 08:17:31;;;;;;;25.40;11.80;;;;;;;5.84;100.00;99205.22;5039942;28;20025;-58
2022/01/17 08:19:56;;;;;;;23.80;11.60;;;;;;;6.52;100.00;99213.63;5039554;28;20036;-57
2022/01/17 08:22:21;;;;;;;25.40;11.38;;;;;;;6.50;100.00;99213.63;5037322;28;20540;-59
2022/01/17 08:24:47;;;;;;;26.80;11.73;;;;;;;5.71;100.00;99201.81;5039616;28;20511;-58
2022/01/17 08:27:12;;;;;;;27.17;11.15;;;;;;;6.81;100.00;99208.28;5039191;28;20048;-58
2022/01/17 08:29:37;;;;;;;23.42;11.10;;;;;;;6.77;100.00;99208.31;5039578;28;20125;-59
2022/01/17 08:32:07;;;;;;;25.20;11.50;;;;;;;5.44;100.00;99198.41;5035377;28;20461;-59
2022/01/17 08:34:33;;;;;;;26.80;11.80;;;;;;;5.38;100.00;99185.47;5036818;28;20036;-60
2022/01/17 08:36:58;;;;;;;24.00;10.82;;;;;;;6.97;100.00;99180.50;5038290;28;20055;-58
2022/01/17 08:39:24;;;;;;;22.50;10.75;;;;;;;6.62;100.00;99157.41;5040057;28;20017;-58
2022/01/17 08:41:51;;;;;;;24.00;11.93;;;;;;;5.62;100.00;99165.59;5038889;28;20041;-58
2022/01/17 08:44:19;;;;;;;25.80;10.70;;;;;;;6.24;100.00;99161.94;5039667;28;20029;-58
2022/01/17 08:46:44;;;;;;;25.75;10.38;;;;;;;7.13;100.00;99160.47;5039184;28;20040;-58
2022/01/17 08:49:10;;;;;;;26.02;11.88;;;;;;;5.95;100.00;99162.91;5039875;28;20025;-59
2022/01/17 08:51:35;;;;;;;22.08;10.07;;;;;;;7.24;100.00;99179.44;5038609;28;20972;-57
2022/01/17 08:54:01;;;;;;;24.50;10.43;;;;;;;7.03;100.00;99180.44;5039735;28;20021;-59
2022/01/17 08:56:29;;;;;;;21.40;9.07;;;;;;;7.72;100.00;99197.16;5038801;28;20029;-59
2022/01/17 08:58:55;;;;;;;23.17;11.20;;;;;;;6.72;100.00;99222.16;5038494;28;20085;-58
2022/01/17 09:01:22;;;;;;;22.08;10.77;;;;;;;6.27;100.00;99218.94;5038745;28;20771;-59
2022/01/17 09:03:48;;;;;;;22.35;9.20;;;;;;;7.47;100.00;99218.16;5038016;28;20055;-58
2022/01/17 09:06:13;;;;;;;24.67;10.95;;;;;;;8.29;100.00;99225.09;5038771;28;20525;-60
2022/01/17 09:08:39;;;;;;;21.10;8.00;;;;;;;7.57;100.00;99215.47;5039729;28;20116;-59
2022/01/17 09:11:04;;;;;;;24.23;11.07;;;;;;;6.12;100.00;99206.03;5038241;28;20041;-57
2022/01/17 09:13:30;;;;;;;22.73;9.88;;;;;;;7.94;100.00;99208.19;5039636;28;20059;-58
2022/01/17 09:15:55;;;;;;;18.67;10.43;;;;;;;7.10;100.00;99208.06;5038522;28;20033;-59
2022/01/17 09:18:22;;;;;;;18.40;8.32;;;;;;;7.50;100.00;99212.94;5039253;28;20029;-59
2022/01/17 09:20:48;;;;;;;23.63;11.30;;;;;;;6.20;100.00;99222.41;5038520;28;20045;-58
2022/01/17 09:23:13;;;;;;;23.27;11.63;;;;;;;7.73;100.00;99241.25;5038985;28;20021;-58
2022/01/17 09:25:39;;;;;;;20.17;9.07;;;;;;;7.11;100.00;99251.31;5038488;28;20033;-58
2022/01/17 09:28:07;;;;;;;25.17;11.38;;;;;;;6.99;100.00;99259.19;5031152;28;20029;-60
2022/01/17 09:30:32;;;;;;;22.58;10.82;;;;;;;6.71;100.00;99256.75;5042123;28;20033;-60
2022/01/17 09:32:57;;;;;;;20.00;8.80;;;;;;;8.87;100.00;99252.94;5043077;28;20017;-58
2022/01/17 09:35:24;;;;;;;23.95;10.60;;;;;;;6.27;100.00;99252.63;5041682;28;20497;-60
2022/01/17 09:37:50;;;;;;;13.98;6.60;;;;;;;8.23;100.00;99271.94;5042627;28;20025;-58
2022/01/17 09:40:18;;;;;;;22.80;11.07;;;;;;;6.81;100.00;99251.50;5042009;28;20031;-58
2022/01/17 09:42:44;;;;;;;20.20;10.02;;;;;;;6.72;100.00;99232.53;5041875;28;20502;-59
2022/01/17 09:45:12;;;;;;;22.27;10.77;;;;;;;5.95;100.00;99253.56;5041911;28;20037;-58
2022/01/17 09:47:39;;;;;;;20.38;9.90;;;;;;;6.95;100.00;99244.50;5041752;28;20040;-59
2022/01/17 09:50:10;;;;;;;16.05;8.48;;;;;;;8.47;100.00;99244.81;5042232;28;20406;-59
2022/01/17 09:52:43;;;;;;;21.77;9.65;;;;;;;7.19;100.00;99271.16;5041823;28;20458;-60
2022/01/17 09:55:13;;;;;;;23.77;10.88;;;;;;;6.00;100.00;99276.03;5041327;28;20047;-59
2022/01/17 09:57:52;;;;;;;17.02;8.45;;;;;;;8.11;100.00;99272.94;5041968;28;20587;-57
2022/01/17 10:00:24;;;;;;;18.30;7.85;;;;;;;8.62;100.00;99264.56;5041702;28;20119;-59
2022/01/17 10:02:50;;;;;;;16.83;8.07;;;;;;;8.41;100.00;99265.69;5042459;28;20033;-59
2022/01/17 10:05:15;;;;;;;19.65;9.75;;;;;;;7.44;100.00;99257.09;5041723;28;20032;-59
2022/01/17 10:08:04;;;;;;;21.42;10.18;;;;;;;5.57;100.00;99267.41;5041975;28;20024;-58
2022/01/17 10:10:46;;;;;;;18.38;8.70;;;;;;;7.61;100.00;99282.06;5041480;28;20067;-60
2022/01/17 10:13:12;;;;;;;18.55;9.57;;;;;;;7.46;100.00;99288.25;5041703;28;20063;-58
2022/01/17 10:15:49;;;;;;;18.40;8.65;;;;;;;7.25;100.00;99289.28;5040927;28;20120;-60
2022/01/17 10:18:29;;;;;;;19.80;9.55;;;;;;;7.49;100.00;99278.69;5042088;28;20029;-58
2022/01/17 10:21:03;;;;;;;18.30;9.07;;;;;;;6.88;100.00;99268.75;5041108;28;20238;-59
2022/01/17 10:26:29;;;;;;;17.58;8.27;;;;;;;6.60;100.00;99268.91;5041113;28;20059;-59
2022/01/17 10:36:58;;;;;;;18.15;8.68;;;;;;;6.72;100.00;99270.56;5040847;28;20411;-60
2022/01/17 10:39:24;;;;;;;17.83;8.90;;;;;;;6.06;100.00;99282.03;5040806;28;20033;-58
2022/01/17 10:41:49;;;;;;;22.73;9.52;;;;;;;6.28;100.00;99277.66;5040331;28;20135;-58
2022/01/17 10:44:34;;;;;;;20.98;9.60;;;;;;;6.94;100.00;99272.16;5041327;28;20631;-59
2022/01/17 10:47:20;;;;;;;19.35;9.10;;;;;;;6.74;100.00;99261.03;5040495;28;20036;-58
2022/01/17 10:49:57;;;;;;;22.27;10.30;;;;;;;6.14;100.00;99271.66;5041289;28;20768;-58
2022/01/17 10:52:27;;;;;;;22.05;9.90;;;;;;;6.82;100.00;99261.00;5039730;28;20139;-58
2022/01/17 10:54:58;;;;;;;18.25;8.20;;;;;;;7.09;100.00;99278.13;5040950;28;20033;-59
2022/01/17 10:57:24;;;;;;;16.55;8.20;;;;;;;6.93;100.00;99257.47;5040174;28;20845;-58
2022/01/17 10:59:51;;;;;;;22.45;9.93;;;;;;;6.11;100.00;99243.19;5041202;28;20112;-57
2022/01/17 11:02:17;;;;;;;17.10;8.50;;;;;;;7.18;100.00;99243.47;5040020;28;20041;-58
2022/01/17 11:04:43;;;;;;;18.65;9.57;;;;;;;5.85;100.00;99233.72;5041248;28;20036;-58
2022/01/17 11:07:09;;;;;;;23.40;9.93;;;;;;;5.86;100.00;99238.00;5040424;28;20144;-58
2022/01/17 11:09:44;;;;;;;20.95;9.60;;;;;;;6.57;100.00;99248.16;5039665;28;20393;-58
2022/01/17 11:12:14;;;;;;;20.77;9.25;;;;;;;7.06;100.00;99242.69;5039648;28;20793;-58
2022/01/17 11:14:42;;;;;;;19.33;8.93;;;;;;;6.52;100.00;99229.19;5040619;28;20041;-58
2022/01/17 11:17:32;;;;;;;19.77;8.52;;;;;;;6.78;100.00;99221.25;5040248;28;20037;-58
2022/01/17 11:20:07;;;;;;;19.48;9.13;;;;;;;6.82;100.00;99232.47;5041184;28;20020;-59
2022/01/17 11:22:37;;;;;;;18.35;8.43;;;;;;;6.20;100.00;99232.78;5039977;28;20044;-59
2022/01/17 11:25:06;;;;;;;19.02;8.52;;;;;;;7.25;100.00;99237.38;5039617;28;20540;-58
2022/01/17 11:27:32;;;;;;;20.08;9.85;;;;;;;6.14;100.00;99227.63;5040301;28;20017;-58
2022/01/17 11:29:58;;;;;;;17.73;8.50;;;;;;;7.44;100.00;99227.69;5040589;28;20032;-59
2022/01/17 11:32:25;;;;;;;16.58;7.93;;;;;;;7.98;100.00;99219.41;5039614;28;20068;-57
2022/01/17 11:34:52;;;;;;;15.85;7.60;;;;;;;7.13;100.00;99218.44;5040461;28;20052;-56
2022/01/17 11:37:19;;;;;;;17.20;8.02;;;;;;;7.71;100.00;99208.41;5039915;28;20041;-57
2022/01/17 11:39:45;;;;;;;17.55;8.45;;;;;;;7.60;100.00;99202.47;5039961;28;20573;-58
2022/01/17 11:42:33;;;;;;;15.70;7.90;;;;;;;9.11;100.00;99213.59;5039521;28;20185;-58
2022/01/17 11:44:59;;;;;;;12.68;6.70;;;;;;;9.65;100.00;99193.56;5040373;28;20043;-58